sensor_id;sensor_type;location;lat;lon;timestamp;temperature;humidity
71994;DHT22;59861;50.268;8.648;2023-07-13T00:02:00;22.50;62.00
71994;DHT22;59861;50.268;8.648;2023-07-13T00:04:27;22.50;63.00
71994;DHT22;59861;50.268;8.648;2023-07-13T00:06:54;22.50;62.00
71994;DHT22;59861;50.268;8.648;2023-07-13T00:09:21;22.50;61.90
71994;DHT22;59861;50.268;8.648;2023-07-13T00:11:52;22.50;62.00
71994;DHT22;59861;50.268;8.648;2023-07-13T00:14:19;22.50;62.00
71994;DHT22;59861;50.268;8.648;2023-07-13T00:16:46;22.50;62.00
71994;DHT22;59861;50.268;8.648;2023-07-13T00:19:13;22.50;61.90
71994;DHT22;59861;50.268;8.648;2023-07-13T00:21:40;22.50;62.70
71994;DHT22;59861;50.268;8.648;2023-07-13T00:24:08;22.50;62.00
71994;DHT22;59861;50.268;8.648;2023-07-13T00:26:35;22.50;62.00
71994;DHT22;59861;50.268;8.648;2023-07-13T00:29:02;22.50;61.90
71994;DHT22;59861;50.268;8.648;2023-07-13T00:31:29;22.50;62.10
71994;DHT22;59861;50.268;8.648;2023-07-13T00:33:56;22.50;61.90
71994;DHT22;59861;50.268;8.648;2023-07-13T00:36:22;22.50;62.00
71994;DHT22;59861;50.268;8.648;2023-07-13T00:38:49;22.50;62.00
71994;DHT22;59861;50.268;8.648;2023-07-13T00:41:16;22.50;61.90
71994;DHT22;59861;50.268;8.648;2023-07-13T00:43:43;22.50;62.00
71994;DHT22;59861;50.268;8.648;2023-07-13T00:46:12;22.50;61.90
71994;DHT22;59861;50.268;8.648;2023-07-13T00:48:38;22.50;62.00
71994;DHT22;59861;50.268;8.648;2023-07-13T00:51:05;22.50;62.00
71994;DHT22;59861;50.268;8.648;2023-07-13T00:53:32;22.50;62.00
71994;DHT22;59861;50.268;8.648;2023-07-13T00:56:00;22.50;61.90
71994;DHT22;59861;50.268;8.648;2023-07-13T00:58:27;22.50;61.90
71994;DHT22;59861;50.268;8.648;2023-07-13T01:00:54;22.50;62.10
71994;DHT22;59861;50.268;8.648;2023-07-13T01:03:21;22.50;62.90
71994;DHT22;59861;50.268;8.648;2023-07-13T01:05:49;22.50;62.00
71994;DHT22;59861;50.268;8.648;2023-07-13T01:08:18;22.50;62.00
71994;DHT22;59861;50.268;8.648;2023-07-13T01:10:51;22.50;62.00
71994;DHT22;59861;50.268;8.648;2023-07-13T01:13:18;22.50;62.00
71994;DHT22;59861;50.268;8.648;2023-07-13T01:15:47;22.50;62.00
71994;DHT22;59861;50.268;8.648;2023-07-13T01:18:15;22.50;62.00
71994;DHT22;59861;50.268;8.648;2023-07-13T01:20:49;22.50;62.00
71994;DHT22;59861;50.268;8.648;2023-07-13T01:23:13;22.50;62.00
71994;DHT22;59861;50.268;8.648;2023-07-13T01:25:40;22.50;62.00
71994;DHT22;59861;50.268;8.648;2023-07-13T01:28:08;22.50;62.00
71994;DHT22;59861;50.268;8.648;2023-07-13T01:30:35;22.50;62.00
71994;DHT22;59861;50.268;8.648;2023-07-13T01:33:04;22.50;62.00
71994;DHT22;59861;50.268;8.648;2023-07-13T01:35:30;22.50;62.00
71994;DHT22;59861;50.268;8.648;2023-07-13T01:37:57;22.50;62.00
71994;DHT22;59861;50.268;8.648;2023-07-13T01:40:26;22.50;62.00
71994;DHT22;59861;50.268;8.648;2023-07-13T01:42:53;22.50;62.00
71994;DHT22;59861;50.268;8.648;2023-07-13T01:45:20;22.50;62.00
71994;DHT22;59861;50.268;8.648;2023-07-13T01:47:47;22.50;62.00
71994;DHT22;59861;50.268;8.648;2023-07-13T01:50:13;22.50;62.10
71994;DHT22;59861;50.268;8.648;2023-07-13T01:52:40;22.50;62.00
71994;DHT22;59861;50.268;8.648;2023-07-13T01:55:07;22.50;62.00
71994;DHT22;59861;50.268;8.648;2023-07-13T01:57:34;22.50;62.00
71994;DHT22;59861;50.268;8.648;2023-07-13T02:00:03;22.50;62.00
71994;DHT22;59861;50.268;8.648;2023-07-13T02:02:30;22.50;62.10
71994;DHT22;59861;50.268;8.648;2023-07-13T02:04:57;22.50;62.20
71994;DHT22;59861;50.268;8.648;2023-07-13T02:07:24;22.50;62.00
71994;DHT22;59861;50.268;8.648;2023-07-13T02:09:51;22.50;62.00
71994;DHT22;59861;50.268;8.648;2023-07-13T02:12:17;22.50;62.10
71994;DHT22;59861;50.268;8.648;2023-07-13T02:14:44;22.50;62.10
71994;DHT22;59861;50.268;8.648;2023-07-13T02:17:12;22.50;62.20
71994;DHT22;59861;50.268;8.648;2023-07-13T02:19:39;22.50;62.10
71994;DHT22;59861;50.268;8.648;2023-07-13T02:22:06;22.50;62.20
71994;DHT22;59861;50.268;8.648;2023-07-13T02:24:33;22.50;62.20
71994;DHT22;59861;50.268;8.648;2023-07-13T02:26:59;22.50;62.20
71994;DHT22;59861;50.268;8.648;2023-07-13T02:29:26;22.50;62.20
71994;DHT22;59861;50.268;8.648;2023-07-13T02:31:53;22.50;62.20
71994;DHT22;59861;50.268;8.648;2023-07-13T02:34:20;22.50;62.20
71994;DHT22;59861;50.268;8.648;2023-07-13T02:36:47;22.50;62.20
71994;DHT22;59861;50.268;8.648;2023-07-13T02:39:13;22.50;62.20
71994;DHT22;59861;50.268;8.648;2023-07-13T02:41:41;22.50;62.20
71994;DHT22;59861;50.268;8.648;2023-07-13T02:44:08;22.50;62.20
71994;DHT22;59861;50.268;8.648;2023-07-13T02:46:35;22.50;62.30
71994;DHT22;59861;50.268;8.648;2023-07-13T02:49:02;22.50;62.20
71994;DHT22;59861;50.268;8.648;2023-07-13T02:51:29;22.50;62.20
71994;DHT22;59861;50.268;8.648;2023-07-13T02:53:56;22.50;62.20
71994;DHT22;59861;50.268;8.648;2023-07-13T02:56:25;22.50;62.30
71994;DHT22;59861;50.268;8.648;2023-07-13T02:58:52;22.50;62.20
71994;DHT22;59861;50.268;8.648;2023-07-13T03:01:20;22.50;62.30
71994;DHT22;59861;50.268;8.648;2023-07-13T03:03:48;22.50;62.30
71994;DHT22;59861;50.268;8.648;2023-07-13T03:06:15;22.50;62.40
71994;DHT22;59861;50.268;8.648;2023-07-13T03:08:43;22.50;62.40
71994;DHT22;59861;50.268;8.648;2023-07-13T03:11:11;22.50;61.80
71994;DHT22;59861;50.268;8.648;2023-07-13T03:13:39;22.50;62.40
71994;DHT22;59861;50.268;8.648;2023-07-13T03:16:06;22.50;62.40
71994;DHT22;59861;50.268;8.648;2023-07-13T03:18:33;22.50;62.50
71994;DHT22;59861;50.268;8.648;2023-07-13T03:21:00;22.40;62.30
71994;DHT22;59861;50.268;8.648;2023-07-13T03:23:26;22.50;62.50
71994;DHT22;59861;50.268;8.648;2023-07-13T03:26:04;22.50;62.40
71994;DHT22;59861;50.268;8.648;2023-07-13T03:28:22;22.50;62.40
71994;DHT22;59861;50.268;8.648;2023-07-13T03:30:48;22.40;62.40
71994;DHT22;59861;50.268;8.648;2023-07-13T03:33:15;22.50;62.50
71994;DHT22;59861;50.268;8.648;2023-07-13T03:35:42;22.50;62.40
71994;DHT22;59861;50.268;8.648;2023-07-13T03:38:09;22.40;62.50
71994;DHT22;59861;50.268;8.648;2023-07-13T03:40:35;22.50;62.50
71994;DHT22;59861;50.268;8.648;2023-07-13T03:43:02;22.50;62.50
71994;DHT22;59861;50.268;8.648;2023-07-13T03:45:29;22.50;62.60
71994;DHT22;59861;50.268;8.648;2023-07-13T03:47:56;22.50;62.60
71994;DHT22;59861;50.268;8.648;2023-07-13T03:50:23;22.50;62.60
71994;DHT22;59861;50.268;8.648;2023-07-13T03:52:49;22.50;62.70
71994;DHT22;59861;50.268;8.648;2023-07-13T03:55:16;22.40;62.70
71994;DHT22;59861;50.268;8.648;2023-07-13T03:57:43;22.40;62.70
71994;DHT22;59861;50.268;8.648;2023-07-13T04:00:10;22.40;62.70
71994;DHT22;59861;50.268;8.648;2023-07-13T04:02:37;22.50;62.70
71994;DHT22;59861;50.268;8.648;2023-07-13T04:05:04;22.40;62.70
71994;DHT22;59861;50.268;8.648;2023-07-13T04:07:32;22.40;62.80
71994;DHT22;59861;50.268;8.648;2023-07-13T04:09:59;22.50;62.80
71994;DHT22;59861;50.268;8.648;2023-07-13T04:12:26;22.40;62.70
71994;DHT22;59861;50.268;8.648;2023-07-13T04:14:53;22.40;62.70
71994;DHT22;59861;50.268;8.648;2023-07-13T04:17:20;22.40;62.70
71994;DHT22;59861;50.268;8.648;2023-07-13T04:19:47;22.50;62.80
71994;DHT22;59861;50.268;8.648;2023-07-13T04:22:14;22.40;62.80
71994;DHT22;59861;50.268;8.648;2023-07-13T04:24:41;22.40;62.80
71994;DHT22;59861;50.268;8.648;2023-07-13T04:27:08;22.40;62.80
71994;DHT22;59861;50.268;8.648;2023-07-13T04:29:35;22.40;62.80
71994;DHT22;59861;50.268;8.648;2023-07-13T04:32:01;22.40;62.80
71994;DHT22;59861;50.268;8.648;2023-07-13T04:34:28;22.40;62.70
71994;DHT22;59861;50.268;8.648;2023-07-13T04:36:55;22.40;62.70
71994;DHT22;59861;50.268;8.648;2023-07-13T04:39:22;22.40;62.70
71994;DHT22;59861;50.268;8.648;2023-07-13T04:41:49;22.40;62.60
71994;DHT22;59861;50.268;8.648;2023-07-13T04:44:16;22.40;62.50
71994;DHT22;59861;50.268;8.648;2023-07-13T04:46:42;22.40;62.20
71994;DHT22;59861;50.268;8.648;2023-07-13T04:49:09;22.50;62.20
71994;DHT22;59861;50.268;8.648;2023-07-13T04:51:36;22.50;62.60
71994;DHT22;59861;50.268;8.648;2023-07-13T04:54:04;22.40;62.50
71994;DHT22;59861;50.268;8.648;2023-07-13T04:56:33;22.40;62.40
71994;DHT22;59861;50.268;8.648;2023-07-13T04:58:59;22.40;62.30
71994;DHT22;59861;50.268;8.648;2023-07-13T05:01:26;22.20;50.50
71994;DHT22;59861;50.268;8.648;2023-07-13T05:03:53;21.80;50.60
71994;DHT22;59861;50.268;8.648;2023-07-13T05:06:22;21.40;50.70
71994;DHT22;59861;50.268;8.648;2023-07-13T05:08:48;21.00;49.80
71994;DHT22;59861;50.268;8.648;2023-07-13T05:11:15;20.90;50.30
71994;DHT22;59861;50.268;8.648;2023-07-13T05:13:42;20.90;51.10
71994;DHT22;59861;50.268;8.648;2023-07-13T05:16:09;20.90;50.40
71994;DHT22;59861;50.268;8.648;2023-07-13T05:18:36;20.90;49.80
71994;DHT22;59861;50.268;8.648;2023-07-13T05:21:03;20.80;50.00
71994;DHT22;59861;50.268;8.648;2023-07-13T05:23:31;20.80;49.80
71994;DHT22;59861;50.268;8.648;2023-07-13T05:25:58;21.00;52.80
71994;DHT22;59861;50.268;8.648;2023-07-13T05:28:26;21.10;50.90
71994;DHT22;59861;50.268;8.648;2023-07-13T05:30:53;21.10;51.00
71994;DHT22;59861;50.268;8.648;2023-07-13T05:33:22;21.10;49.10
71994;DHT22;59861;50.268;8.648;2023-07-13T05:35:50;21.10;50.40
71994;DHT22;59861;50.268;8.648;2023-07-13T05:38:16;21.00;49.20
71994;DHT22;59861;50.268;8.648;2023-07-13T05:40:43;21.10;51.10
71994;DHT22;59861;50.268;8.648;2023-07-13T05:43:10;21.20;51.80
71994;DHT22;59861;50.268;8.648;2023-07-13T05:45:37;21.40;53.70
71994;DHT22;59861;50.268;8.648;2023-07-13T05:48:04;21.50;55.00
71994;DHT22;59861;50.268;8.648;2023-07-13T05:50:31;21.60;55.60
71994;DHT22;59861;50.268;8.648;2023-07-13T05:52:58;21.70;55.90
71994;DHT22;59861;50.268;8.648;2023-07-13T05:55:25;21.70;55.90
71994;DHT22;59861;50.268;8.648;2023-07-13T05:57:51;21.80;56.60
71994;DHT22;59861;50.268;8.648;2023-07-13T06:00:18;21.80;56.10
71994;DHT22;59861;50.268;8.648;2023-07-13T06:02:45;21.90;56.00
71994;DHT22;59861;50.268;8.648;2023-07-13T06:05:12;21.90;56.10
71994;DHT22;59861;50.268;8.648;2023-07-13T06:07:39;21.90;56.10
71994;DHT22;59861;50.268;8.648;2023-07-13T06:10:06;21.90;56.20
71994;DHT22;59861;50.268;8.648;2023-07-13T06:12:32;22.00;56.20
71994;DHT22;59861;50.268;8.648;2023-07-13T06:14:59;22.00;56.40
71994;DHT22;59861;50.268;8.648;2023-07-13T06:17:26;22.00;56.40
71994;DHT22;59861;50.268;8.648;2023-07-13T06:19:53;22.00;56.40
71994;DHT22;59861;50.268;8.648;2023-07-13T06:22:20;22.00;56.50
71994;DHT22;59861;50.268;8.648;2023-07-13T06:24:46;22.00;56.70
71994;DHT22;59861;50.268;8.648;2023-07-13T06:27:13;22.00;56.70
71994;DHT22;59861;50.268;8.648;2023-07-13T06:29:40;22.00;56.60
71994;DHT22;59861;50.268;8.648;2023-07-13T06:32:08;22.10;56.80
71994;DHT22;59861;50.268;8.648;2023-07-13T06:34:35;22.10;56.90
71994;DHT22;59861;50.268;8.648;2023-07-13T06:37:02;22.10;56.80
71994;DHT22;59861;50.268;8.648;2023-07-13T06:39:29;22.10;56.90
71994;DHT22;59861;50.268;8.648;2023-07-13T06:41:56;22.10;57.00
71994;DHT22;59861;50.268;8.648;2023-07-13T06:44:22;22.10;57.20
71994;DHT22;59861;50.268;8.648;2023-07-13T06:46:49;22.10;57.30
71994;DHT22;59861;50.268;8.648;2023-07-13T06:49:16;22.10;57.70
71994;DHT22;59861;50.268;8.648;2023-07-13T06:51:43;22.10;57.80
71994;DHT22;59861;50.268;8.648;2023-07-13T06:54:10;22.10;57.80
71994;DHT22;59861;50.268;8.648;2023-07-13T06:56:37;22.10;57.60
71994;DHT22;59861;50.268;8.648;2023-07-13T06:59:03;22.10;57.30
71994;DHT22;59861;50.268;8.648;2023-07-13T07:01:30;22.10;57.20
71994;DHT22;59861;50.268;8.648;2023-07-13T07:03:57;22.10;57.00
71994;DHT22;59861;50.268;8.648;2023-07-13T07:06:24;22.10;57.10
71994;DHT22;59861;50.268;8.648;2023-07-13T07:08:51;22.10;56.90
71994;DHT22;59861;50.268;8.648;2023-07-13T07:11:20;22.10;57.20
71994;DHT22;59861;50.268;8.648;2023-07-13T07:13:48;22.10;57.30
71994;DHT22;59861;50.268;8.648;2023-07-13T07:16:15;22.20;57.30
71994;DHT22;59861;50.268;8.648;2023-07-13T07:18:42;22.10;57.40
71994;DHT22;59861;50.268;8.648;2023-07-13T07:21:09;22.20;57.40
71994;DHT22;59861;50.268;8.648;2023-07-13T07:23:36;22.20;57.50
71994;DHT22;59861;50.268;8.648;2023-07-13T07:26:03;22.20;57.70
71994;DHT22;59861;50.268;8.648;2023-07-13T07:28:30;22.20;57.40
71994;DHT22;59861;50.268;8.648;2023-07-13T07:30:57;22.20;57.80
71994;DHT22;59861;50.268;8.648;2023-07-13T07:33:24;22.20;57.50
71994;DHT22;59861;50.268;8.648;2023-07-13T07:35:51;22.20;57.70
71994;DHT22;59861;50.268;8.648;2023-07-13T07:38:18;22.20;57.70
71994;DHT22;59861;50.268;8.648;2023-07-13T07:40:45;22.20;58.20
71994;DHT22;59861;50.268;8.648;2023-07-13T07:43:12;22.10;57.90
71994;DHT22;59861;50.268;8.648;2023-07-13T07:45:39;22.20;58.00
71994;DHT22;59861;50.268;8.648;2023-07-13T07:48:06;22.20;58.00
71994;DHT22;59861;50.268;8.648;2023-07-13T07:50:35;22.20;57.90
71994;DHT22;59861;50.268;8.648;2023-07-13T07:53:03;22.20;58.00
71994;DHT22;59861;50.268;8.648;2023-07-13T07:55:32;22.20;57.90
71994;DHT22;59861;50.268;8.648;2023-07-13T07:57:59;22.20;58.00
71994;DHT22;59861;50.268;8.648;2023-07-13T08:00:26;22.20;58.10
71994;DHT22;59861;50.268;8.648;2023-07-13T08:02:54;22.20;58.00
71994;DHT22;59861;50.268;8.648;2023-07-13T08:05:21;22.20;58.20
71994;DHT22;59861;50.268;8.648;2023-07-13T08:07:48;22.20;58.20
71994;DHT22;59861;50.268;8.648;2023-07-13T08:10:15;22.30;58.30
71994;DHT22;59861;50.268;8.648;2023-07-13T08:12:42;22.30;58.30
71994;DHT22;59861;50.268;8.648;2023-07-13T08:15:11;22.30;58.40
71994;DHT22;59861;50.268;8.648;2023-07-13T08:17:37;22.30;58.40
71994;DHT22;59861;50.268;8.648;2023-07-13T08:20:04;22.30;58.40
71994;DHT22;59861;50.268;8.648;2023-07-13T08:22:31;22.30;58.40
71994;DHT22;59861;50.268;8.648;2023-07-13T08:24:59;22.30;58.50
71994;DHT22;59861;50.268;8.648;2023-07-13T08:27:27;22.30;58.60
71994;DHT22;59861;50.268;8.648;2023-07-13T08:29:54;22.30;58.60
71994;DHT22;59861;50.268;8.648;2023-07-13T08:32:21;22.30;58.70
71994;DHT22;59861;50.268;8.648;2023-07-13T08:34:48;22.30;58.80
71994;DHT22;59861;50.268;8.648;2023-07-13T08:37:16;22.30;58.70
71994;DHT22;59861;50.268;8.648;2023-07-13T08:39:43;22.30;58.70
71994;DHT22;59861;50.268;8.648;2023-07-13T08:47:12;22.30;58.90
71994;DHT22;59861;50.268;8.648;2023-07-13T08:49:40;22.30;58.90
71994;DHT22;59861;50.268;8.648;2023-07-13T08:52:21;22.30;58.90
71994;DHT22;59861;50.268;8.648;2023-07-13T08:54:43;22.30;59.00
71994;DHT22;59861;50.268;8.648;2023-07-13T08:57:13;22.30;59.00
71994;DHT22;59861;50.268;8.648;2023-07-13T08:59:40;22.30;58.90
71994;DHT22;59861;50.268;8.648;2023-07-13T09:04:46;22.30;59.20
71994;DHT22;59861;50.268;8.648;2023-07-13T09:07:17;22.30;59.10
71994;DHT22;59861;50.268;8.648;2023-07-13T09:09:52;22.30;59.20
71994;DHT22;59861;50.268;8.648;2023-07-13T09:12:25;22.30;59.10
71994;DHT22;59861;50.268;8.648;2023-07-13T09:14:52;22.30;59.30
71994;DHT22;59861;50.268;8.648;2023-07-13T09:17:24;22.40;59.40
71994;DHT22;59861;50.268;8.648;2023-07-13T09:19:57;22.30;59.30
71994;DHT22;59861;50.268;8.648;2023-07-13T09:22:20;22.30;59.30
71994;DHT22;59861;50.268;8.648;2023-07-13T09:24:50;22.30;59.30
71994;DHT22;59861;50.268;8.648;2023-07-13T09:27:23;22.40;59.50
71994;DHT22;59861;50.268;8.648;2023-07-13T09:30:01;22.40;59.50
71994;DHT22;59861;50.268;8.648;2023-07-13T09:32:21;22.40;59.50
71994;DHT22;59861;50.268;8.648;2023-07-13T09:34:50;22.40;59.60
71994;DHT22;59861;50.268;8.648;2023-07-13T09:37:18;22.40;59.50
71994;DHT22;59861;50.268;8.648;2023-07-13T09:39:46;22.40;60.30
71994;DHT22;59861;50.268;8.648;2023-07-13T09:42:17;22.40;59.70
71994;DHT22;59861;50.268;8.648;2023-07-13T09:47:15;22.40;59.60
71994;DHT22;59861;50.268;8.648;2023-07-13T09:49:42;22.40;59.60
71994;DHT22;59861;50.268;8.648;2023-07-13T09:52:11;22.40;59.60
71994;DHT22;59861;50.268;8.648;2023-07-13T09:54:38;22.40;59.70
71994;DHT22;59861;50.268;8.648;2023-07-13T09:57:12;22.40;59.60
71994;DHT22;59861;50.268;8.648;2023-07-13T09:59:40;22.40;59.70
71994;DHT22;59861;50.268;8.648;2023-07-13T10:02:28;22.40;59.70
71994;DHT22;59861;50.268;8.648;2023-07-13T10:05:01;22.40;59.80
71994;DHT22;59861;50.268;8.648;2023-07-13T10:07:29;22.40;59.90
71994;DHT22;59861;50.268;8.648;2023-07-13T10:09:57;22.40;59.60
71994;DHT22;59861;50.268;8.648;2023-07-13T10:12:26;22.50;60.10
71994;DHT22;59861;50.268;8.648;2023-07-13T10:14:54;22.50;60.00
71994;DHT22;59861;50.268;8.648;2023-07-13T10:17:31;22.50;60.20
71994;DHT22;59861;50.268;8.648;2023-07-13T10:20:03;22.50;60.20
71994;DHT22;59861;50.268;8.648;2023-07-13T10:22:36;22.50;60.30
71994;DHT22;59861;50.268;8.648;2023-07-13T10:25:01;22.50;60.00
71994;DHT22;59861;50.268;8.648;2023-07-13T10:27:33;22.50;60.10
71994;DHT22;59861;50.268;8.648;2023-07-13T10:32:34;22.50;60.40
71994;DHT22;59861;50.268;8.648;2023-07-13T10:35:02;22.50;60.60
71994;DHT22;59861;50.268;8.648;2023-07-13T10:37:30;22.50;60.80
71994;DHT22;59861;50.268;8.648;2023-07-13T10:39:58;22.50;60.70
71994;DHT22;59861;50.268;8.648;2023-07-13T10:44:54;22.50;60.80
71994;DHT22;59861;50.268;8.648;2023-07-13T10:47:21;22.50;60.80
71994;DHT22;59861;50.268;8.648;2023-07-13T10:49:49;22.50;60.90
71994;DHT22;59861;50.268;8.648;2023-07-13T10:53:19;22.50;60.90
71994;DHT22;59861;50.268;8.648;2023-07-13T10:54:54;22.60;60.80
71994;DHT22;59861;50.268;8.648;2023-07-13T10:57:22;22.50;60.60
71994;DHT22;59861;50.268;8.648;2023-07-13T11:00:35;22.60;60.90
71994;DHT22;59861;50.268;8.648;2023-07-13T11:02:22;22.60;60.60
71994;DHT22;59861;50.268;8.648;2023-07-13T11:04:49;22.60;60.60
71994;DHT22;59861;50.268;8.648;2023-07-13T11:07:28;22.60;60.60
71994;DHT22;59861;50.268;8.648;2023-07-13T11:09:55;22.60;60.60
71994;DHT22;59861;50.268;8.648;2023-07-13T11:20:10;22.60;60.60
71994;DHT22;59861;50.268;8.648;2023-07-13T11:25:26;22.60;60.60
71994;DHT22;59861;50.268;8.648;2023-07-13T11:33:25;22.60;60.70
71994;DHT22;59861;50.268;8.648;2023-07-13T11:38:28;22.60;60.80
71994;DHT22;59861;50.268;8.648;2023-07-13T11:40:55;22.50;60.70
71994;DHT22;59861;50.268;8.648;2023-07-13T11:43:22;22.60;60.70
71994;DHT22;59861;50.268;8.648;2023-07-13T11:45:51;22.60;60.70
71994;DHT22;59861;50.268;8.648;2023-07-13T11:48:19;22.60;60.80
71994;DHT22;59861;50.268;8.648;2023-07-13T11:50:55;22.60;61.80
71994;DHT22;59861;50.268;8.648;2023-07-13T11:53:18;22.50;60.70
71994;DHT22;59861;50.268;8.648;2023-07-13T11:55:45;22.60;60.90
71994;DHT22;59861;50.268;8.648;2023-07-13T11:58:14;22.60;60.80
71994;DHT22;59861;50.268;8.648;2023-07-13T12:00:40;22.60;60.80
71994;DHT22;59861;50.268;8.648;2023-07-13T12:03:07;22.60;60.60
71994;DHT22;59861;50.268;8.648;2023-07-13T12:05:35;22.60;60.70
71994;DHT22;59861;50.268;8.648;2023-07-13T12:08:08;22.60;60.90
71994;DHT22;59861;50.268;8.648;2023-07-13T12:10:31;22.60;60.50
71994;DHT22;59861;50.268;8.648;2023-07-13T12:13:08;22.60;60.50
71994;DHT22;59861;50.268;8.648;2023-07-13T12:15:41;22.60;60.60
71994;DHT22;59861;50.268;8.648;2023-07-13T12:18:30;22.60;60.60
71994;DHT22;59861;50.268;8.648;2023-07-13T12:20:37;22.60;60.50
71994;DHT22;59861;50.268;8.648;2023-07-13T12:23:05;22.60;60.50
71994;DHT22;59861;50.268;8.648;2023-07-13T12:25:32;22.60;60.60
71994;DHT22;59861;50.268;8.648;2023-07-13T12:27:59;22.60;60.50
71994;DHT22;59861;50.268;8.648;2023-07-13T12:30:28;22.60;60.80
71994;DHT22;59861;50.268;8.648;2023-07-13T12:33:01;22.60;60.70
71994;DHT22;59861;50.268;8.648;2023-07-13T12:35:29;22.60;60.60
71994;DHT22;59861;50.268;8.648;2023-07-13T12:37:58;22.60;60.70
71994;DHT22;59861;50.268;8.648;2023-07-13T12:40:33;22.60;61.00
71994;DHT22;59861;50.268;8.648;2023-07-13T12:43:00;22.60;60.80
71994;DHT22;59861;50.268;8.648;2023-07-13T12:45:29;22.60;60.80
71994;DHT22;59861;50.268;8.648;2023-07-13T12:47:57;22.60;60.60
71994;DHT22;59861;50.268;8.648;2023-07-13T12:50:29;22.60;60.80
71994;DHT22;59861;50.268;8.648;2023-07-13T12:53:01;22.60;60.80
71994;DHT22;59861;50.268;8.648;2023-07-13T12:55:21;22.60;61.00
71994;DHT22;59861;50.268;8.648;2023-07-13T12:57:52;22.60;61.00
71994;DHT22;59861;50.268;8.648;2023-07-13T13:00:21;22.60;60.90
71994;DHT22;59861;50.268;8.648;2023-07-13T13:02:49;22.60;60.90
71994;DHT22;59861;50.268;8.648;2023-07-13T13:05:16;22.60;61.00
71994;DHT22;59861;50.268;8.648;2023-07-13T13:07:43;22.60;61.00
71994;DHT22;59861;50.268;8.648;2023-07-13T13:10:12;22.60;61.20
71994;DHT22;59861;50.268;8.648;2023-07-13T13:12:39;22.60;61.00
71994;DHT22;59861;50.268;8.648;2023-07-13T13:15:08;22.60;61.00
71994;DHT22;59861;50.268;8.648;2023-07-13T13:17:35;22.60;61.00
71994;DHT22;59861;50.268;8.648;2023-07-13T13:20:04;22.60;61.00
71994;DHT22;59861;50.268;8.648;2023-07-13T13:22:32;22.60;60.90
71994;DHT22;59861;50.268;8.648;2023-07-13T13:24:58;22.60;61.00
71994;DHT22;59861;50.268;8.648;2023-07-13T13:27:26;22.60;61.00
71994;DHT22;59861;50.268;8.648;2023-07-13T13:29:52;22.60;61.20
71994;DHT22;59861;50.268;8.648;2023-07-13T13:32:20;22.60;61.10
71994;DHT22;59861;50.268;8.648;2023-07-13T13:34:46;22.60;61.20
71994;DHT22;59861;50.268;8.648;2023-07-13T13:37:17;22.60;61.20
71994;DHT22;59861;50.268;8.648;2023-07-13T13:39:45;22.60;61.10
71994;DHT22;59861;50.268;8.648;2023-07-13T13:42:12;22.60;61.20
71994;DHT22;59861;50.268;8.648;2023-07-13T13:44:40;22.60;61.20
71994;DHT22;59861;50.268;8.648;2023-07-13T13:47:26;22.60;61.40
71994;DHT22;59861;50.268;8.648;2023-07-13T13:49:39;22.60;61.10
71994;DHT22;59861;50.268;8.648;2023-07-13T13:52:08;22.60;61.10
71994;DHT22;59861;50.268;8.648;2023-07-13T13:54:35;22.60;61.30
71994;DHT22;59861;50.268;8.648;2023-07-13T13:57:02;22.60;60.90
71994;DHT22;59861;50.268;8.648;2023-07-13T13:59:30;22.50;58.50
71994;DHT22;59861;50.268;8.648;2023-07-13T14:01:58;22.40;56.90
71994;DHT22;59861;50.268;8.648;2023-07-13T14:04:26;22.20;56.50
71994;DHT22;59861;50.268;8.648;2023-07-13T14:06:53;21.90;55.60
71994;DHT22;59861;50.268;8.648;2023-07-13T14:09:20;21.70;55.90
71994;DHT22;59861;50.268;8.648;2023-07-13T14:11:48;21.80;57.10
71994;DHT22;59861;50.268;8.648;2023-07-13T14:14:16;21.90;58.00
71994;DHT22;59861;50.268;8.648;2023-07-13T14:16:44;22.00;59.60
71994;DHT22;59861;50.268;8.648;2023-07-13T14:19:12;22.10;59.60
71994;DHT22;59861;50.268;8.648;2023-07-13T14:21:40;22.10;59.30
71994;DHT22;59861;50.268;8.648;2023-07-13T14:24:07;22.20;59.50
71994;DHT22;59861;50.268;8.648;2023-07-13T14:26:36;22.20;59.40
71994;DHT22;59861;50.268;8.648;2023-07-13T14:29:02;22.20;59.50
71994;DHT22;59861;50.268;8.648;2023-07-13T14:31:30;22.30;59.60
71994;DHT22;59861;50.268;8.648;2023-07-13T14:33:57;22.30;59.60
71994;DHT22;59861;50.268;8.648;2023-07-13T14:36:31;22.30;59.60
71994;DHT22;59861;50.268;8.648;2023-07-13T14:38:58;22.30;59.60
71994;DHT22;59861;50.268;8.648;2023-07-13T14:41:25;22.30;59.70
71994;DHT22;59861;50.268;8.648;2023-07-13T14:43:52;22.30;59.60
71994;DHT22;59861;50.268;8.648;2023-07-13T14:46:30;22.30;59.60
71994;DHT22;59861;50.268;8.648;2023-07-13T14:49:01;22.30;59.50
71994;DHT22;59861;50.268;8.648;2023-07-13T14:51:29;22.30;59.50
71994;DHT22;59861;50.268;8.648;2023-07-13T14:53:57;22.30;59.50
71994;DHT22;59861;50.268;8.648;2023-07-13T14:56:24;22.30;59.50
71994;DHT22;59861;50.268;8.648;2023-07-13T14:58:51;22.30;59.50
71994;DHT22;59861;50.268;8.648;2023-07-13T15:01:19;22.30;59.50
71994;DHT22;59861;50.268;8.648;2023-07-13T15:03:47;22.30;59.60
71994;DHT22;59861;50.268;8.648;2023-07-13T15:06:15;22.40;59.60
71994;DHT22;59861;50.268;8.648;2023-07-13T15:08:41;22.40;59.60
71994;DHT22;59861;50.268;8.648;2023-07-13T15:11:08;22.30;59.80
71994;DHT22;59861;50.268;8.648;2023-07-13T15:13:38;22.40;59.70
71994;DHT22;59861;50.268;8.648;2023-07-13T15:16:13;22.30;58.70
71994;DHT22;59861;50.268;8.648;2023-07-13T15:18:37;22.40;59.20
71994;DHT22;59861;50.268;8.648;2023-07-13T15:21:08;22.30;57.80
71994;DHT22;59861;50.268;8.648;2023-07-13T15:23:33;22.30;57.80
71994;DHT22;59861;50.268;8.648;2023-07-13T15:26:01;22.30;57.90
71994;DHT22;59861;50.268;8.648;2023-07-13T15:28:29;22.30;57.50
71994;DHT22;59861;50.268;8.648;2023-07-13T15:30:56;22.30;57.60
71994;DHT22;59861;50.268;8.648;2023-07-13T15:33:24;22.30;58.20
71994;DHT22;59861;50.268;8.648;2023-07-13T15:35:51;22.30;55.70
71994;DHT22;59861;50.268;8.648;2023-07-13T15:38:27;22.30;56.10
71994;DHT22;59861;50.268;8.648;2023-07-13T15:40:53;22.30;57.10
71994;DHT22;59861;50.268;8.648;2023-07-13T15:43:20;22.30;57.20
71994;DHT22;59861;50.268;8.648;2023-07-13T15:45:47;22.30;56.00
71994;DHT22;59861;50.268;8.648;2023-07-13T15:48:18;22.30;56.20
71994;DHT22;59861;50.268;8.648;2023-07-13T15:50:46;22.30;56.80
71994;DHT22;59861;50.268;8.648;2023-07-13T15:53:14;22.40;56.50
71994;DHT22;59861;50.268;8.648;2023-07-13T15:55:42;22.30;57.80
71994;DHT22;59861;50.268;8.648;2023-07-13T15:58:11;22.40;57.50
71994;DHT22;59861;50.268;8.648;2023-07-13T16:00:38;22.40;57.20
71994;DHT22;59861;50.268;8.648;2023-07-13T16:03:05;22.40;57.00
71994;DHT22;59861;50.268;8.648;2023-07-13T16:05:33;22.40;56.70
71994;DHT22;59861;50.268;8.648;2023-07-13T16:07:59;22.40;56.60